sensor_id;sensor_type;location;lat;lon;timestamp;temperature;humidity
36924;DHT22;22841;50.252;18.688;2023-03-12T00:00:49;0.10;1.00
36924;DHT22;22841;50.252;18.688;2023-03-12T00:03:16;0.10;1.00
36924;DHT22;22841;50.252;18.688;2023-03-12T00:05:43;0.10;99.90
36924;DHT22;22841;50.252;18.688;2023-03-12T00:08:10;0.00;99.90
36924;DHT22;22841;50.252;18.688;2023-03-12T00:10:39;0.00;99.90
36924;DHT22;22841;50.252;18.688;2023-03-12T00:13:06;-0.10;99.90
36924;DHT22;22841;50.252;18.688;2023-03-12T00:15:35;-0.10;99.90
36924;DHT22;22841;50.252;18.688;2023-03-12T00:18:02;-0.20;99.90
36924;DHT22;22841;50.252;18.688;2023-03-12T00:20:28;-0.20;99.90
36924;DHT22;22841;50.252;18.688;2023-03-12T00:22:54;-0.20;99.90
36924;DHT22;22841;50.252;18.688;2023-03-12T00:25:22;-0.20;99.90
36924;DHT22;22841;50.252;18.688;2023-03-12T00:27:48;-0.20;1.00
36924;DHT22;22841;50.252;18.688;2023-03-12T00:30:14;-0.20;1.00
36924;DHT22;22841;50.252;18.688;2023-03-12T00:32:40;-0.20;1.00
36924;DHT22;22841;50.252;18.688;2023-03-12T00:35:07;-0.20;1.00
36924;DHT22;22841;50.252;18.688;2023-03-12T00:37:33;-0.20;1.00
36924;DHT22;22841;50.252;18.688;2023-03-12T00:40:00;-0.20;1.00
36924;DHT22;22841;50.252;18.688;2023-03-12T00:42:27;-0.40;99.90
36924;DHT22;22841;50.252;18.688;2023-03-12T00:44:53;-0.40;99.90
36924;DHT22;22841;50.252;18.688;2023-03-12T00:47:19;-0.40;1.00
36924;DHT22;22841;50.252;18.688;2023-03-12T00:49:45;-0.50;99.90
36924;DHT22;22841;50.252;18.688;2023-03-12T00:52:11;-0.50;1.00
36924;DHT22;22841;50.252;18.688;2023-03-12T00:54:37;-0.50;1.00
36924;DHT22;22841;50.252;18.688;2023-03-12T00:57:04;-0.50;99.90
36924;DHT22;22841;50.252;18.688;2023-03-12T00:59:30;-0.50;1.00
36924;DHT22;22841;50.252;18.688;2023-03-12T01:01:56;-0.50;1.00
36924;DHT22;22841;50.252;18.688;2023-03-12T01:04:22;-0.50;1.00
36924;DHT22;22841;50.252;18.688;2023-03-12T01:06:49;-0.50;1.00
36924;DHT22;22841;50.252;18.688;2023-03-12T01:09:15;-0.50;1.00
36924;DHT22;22841;50.252;18.688;2023-03-12T01:11:41;-0.60;1.00
36924;DHT22;22841;50.252;18.688;2023-03-12T01:14:08;-0.50;1.00
36924;DHT22;22841;50.252;18.688;2023-03-12T01:16:34;-0.50;1.00
36924;DHT22;22841;50.252;18.688;2023-03-12T01:19:02;-0.60;1.00
36924;DHT22;22841;50.252;18.688;2023-03-12T01:21:29;-0.50;1.00
36924;DHT22;22841;50.252;18.688;2023-03-12T01:23:55;-0.50;1.00
36924;DHT22;22841;50.252;18.688;2023-03-12T01:26:22;-0.60;1.00
36924;DHT22;22841;50.252;18.688;2023-03-12T01:28:48;-0.70;1.00
36924;DHT22;22841;50.252;18.688;2023-03-12T01:31:17;-0.60;1.00
36924;DHT22;22841;50.252;18.688;2023-03-12T01:33:50;-0.60;1.00
36924;DHT22;22841;50.252;18.688;2023-03-12T01:36:26;-0.70;1.00
36924;DHT22;22841;50.252;18.688;2023-03-12T01:38:54;-0.70;1.00
36924;DHT22;22841;50.252;18.688;2023-03-12T01:41:22;-0.70;1.00
36924;DHT22;22841;50.252;18.688;2023-03-12T01:43:49;-0.70;1.00
36924;DHT22;22841;50.252;18.688;2023-03-12T01:49:08;-0.70;1.00
36924;DHT22;22841;50.252;18.688;2023-03-12T01:52:06;-0.70;1.00
36924;DHT22;22841;50.252;18.688;2023-03-12T01:55:00;-0.70;1.00
36924;DHT22;22841;50.252;18.688;2023-03-12T01:57:36;-0.80;1.00
36924;DHT22;22841;50.252;18.688;2023-03-12T02:00:14;-0.90;1.00
36924;DHT22;22841;50.252;18.688;2023-03-12T02:02:42;-0.90;1.00
36924;DHT22;22841;50.252;18.688;2023-03-12T02:05:29;-0.80;1.00
36924;DHT22;22841;50.252;18.688;2023-03-12T02:07:57;-1.00;97.60
36924;DHT22;22841;50.252;18.688;2023-03-12T02:10:24;-1.00;99.90
36924;DHT22;22841;50.252;18.688;2023-03-12T02:12:50;-1.10;99.90
36924;DHT22;22841;50.252;18.688;2023-03-12T02:15:17;-1.10;99.90
36924;DHT22;22841;50.252;18.688;2023-03-12T02:17:43;-1.10;80.40
36924;DHT22;22841;50.252;18.688;2023-03-12T02:20:27;-1.10;74.80
36924;DHT22;22841;50.252;18.688;2023-03-12T02:23:07;-1.10;1.00
36924;DHT22;22841;50.252;18.688;2023-03-12T02:25:37;-1.10;1.00
36924;DHT22;22841;50.252;18.688;2023-03-12T02:28:08;-1.20;1.00
36924;DHT22;22841;50.252;18.688;2023-03-12T02:30:35;-1.20;1.00
36924;DHT22;22841;50.252;18.688;2023-03-12T02:33:05;-1.20;1.00
36924;DHT22;22841;50.252;18.688;2023-03-12T02:35:32;-1.30;1.00
36924;DHT22;22841;50.252;18.688;2023-03-12T02:37:58;-1.30;1.00
36924;DHT22;22841;50.252;18.688;2023-03-12T02:40:35;-1.40;1.00
36924;DHT22;22841;50.252;18.688;2023-03-12T02:43:05;-1.40;1.00
36924;DHT22;22841;50.252;18.688;2023-03-12T02:45:33;-1.30;1.00
36924;DHT22;22841;50.252;18.688;2023-03-12T02:48:01;-1.30;1.00
36924;DHT22;22841;50.252;18.688;2023-03-12T02:50:27;-1.30;1.00
36924;DHT22;22841;50.252;18.688;2023-03-12T02:52:53;-1.20;99.90
36924;DHT22;22841;50.252;18.688;2023-03-12T02:55:19;-1.30;99.90
36924;DHT22;22841;50.252;18.688;2023-03-12T02:57:45;-1.30;99.90
36924;DHT22;22841;50.252;18.688;2023-03-12T03:00:12;-1.20;99.90
36924;DHT22;22841;50.252;18.688;2023-03-12T03:02:40;-1.30;99.90
36924;DHT22;22841;50.252;18.688;2023-03-12T03:05:07;-1.30;99.90
36924;DHT22;22841;50.252;18.688;2023-03-12T03:07:34;-1.20;99.90
36924;DHT22;22841;50.252;18.688;2023-03-12T03:10:00;-1.40;99.90
36924;DHT22;22841;50.252;18.688;2023-03-12T03:12:38;-1.40;99.90
36924;DHT22;22841;50.252;18.688;2023-03-12T03:15:04;-1.40;99.90
36924;DHT22;22841;50.252;18.688;2023-03-12T03:17:31;-1.40;99.90
36924;DHT22;22841;50.252;18.688;2023-03-12T03:19:57;-1.50;99.90
36924;DHT22;22841;50.252;18.688;2023-03-12T03:22:23;-1.50;99.90
36924;DHT22;22841;50.252;18.688;2023-03-12T03:24:49;-1.50;99.90
36924;DHT22;22841;50.252;18.688;2023-03-12T03:27:15;-1.40;99.90
36924;DHT22;22841;50.252;18.688;2023-03-12T03:29:41;-1.40;99.90
36924;DHT22;22841;50.252;18.688;2023-03-12T03:32:09;-1.50;99.90
36924;DHT22;22841;50.252;18.688;2023-03-12T03:34:35;-1.40;99.90
36924;DHT22;22841;50.252;18.688;2023-03-12T03:37:01;-1.40;99.90
36924;DHT22;22841;50.252;18.688;2023-03-12T03:39:28;-1.50;99.90
36924;DHT22;22841;50.252;18.688;2023-03-12T03:41:54;-1.50;99.90
36924;DHT22;22841;50.252;18.688;2023-03-12T03:44:20;-1.50;99.90
36924;DHT22;22841;50.252;18.688;2023-03-12T03:46:48;-1.50;99.90
36924;DHT22;22841;50.252;18.688;2023-03-12T03:49:14;-1.50;99.90
36924;DHT22;22841;50.252;18.688;2023-03-12T03:51:41;-1.40;99.90
36924;DHT22;22841;50.252;18.688;2023-03-12T03:54:09;-1.40;99.90
36924;DHT22;22841;50.252;18.688;2023-03-12T03:56:35;-1.40;99.90
36924;DHT22;22841;50.252;18.688;2023-03-12T03:59:02;-1.40;99.90
36924;DHT22;22841;50.252;18.688;2023-03-12T04:01:29;-1.30;99.90
36924;DHT22;22841;50.252;18.688;2023-03-12T04:03:57;-1.30;99.90
36924;DHT22;22841;50.252;18.688;2023-03-12T04:06:23;-1.40;99.90
36924;DHT22;22841;50.252;18.688;2023-03-12T04:08:49;-1.40;99.90
36924;DHT22;22841;50.252;18.688;2023-03-12T04:11:18;-1.50;99.90
36924;DHT22;22841;50.252;18.688;2023-03-12T04:13:45;-1.50;99.90
36924;DHT22;22841;50.252;18.688;2023-03-12T04:16:12;-1.50;99.90
36924;DHT22;22841;50.252;18.688;2023-03-12T04:18:38;-1.40;99.90
36924;DHT22;22841;50.252;18.688;2023-03-12T04:21:06;-1.40;99.90
36924;DHT22;22841;50.252;18.688;2023-03-12T04:23:33;-1.40;99.90
36924;DHT22;22841;50.252;18.688;2023-03-12T04:25:59;-1.40;99.90
36924;DHT22;22841;50.252;18.688;2023-03-12T04:28:25;-1.50;99.90
36924;DHT22;22841;50.252;18.688;2023-03-12T04:30:56;-1.50;99.90
36924;DHT22;22841;50.252;18.688;2023-03-12T04:33:28;-1.50;99.90
36924;DHT22;22841;50.252;18.688;2023-03-12T04:35:55;-1.40;99.90
36924;DHT22;22841;50.252;18.688;2023-03-12T04:38:23;-1.40;99.90
36924;DHT22;22841;50.252;18.688;2023-03-12T04:41:04;-1.40;99.90
36924;DHT22;22841;50.252;18.688;2023-03-12T04:43:31;-1.40;99.90
36924;DHT22;22841;50.252;18.688;2023-03-12T04:45:57;-1.40;99.90
36924;DHT22;22841;50.252;18.688;2023-03-12T04:48:24;-1.40;99.90
36924;DHT22;22841;50.252;18.688;2023-03-12T04:50:51;-1.40;99.90
36924;DHT22;22841;50.252;18.688;2023-03-12T04:53:17;-1.40;99.90
36924;DHT22;22841;50.252;18.688;2023-03-12T04:55:43;-1.40;99.90
36924;DHT22;22841;50.252;18.688;2023-03-12T04:58:09;-1.30;99.90
36924;DHT22;22841;50.252;18.688;2023-03-12T05:00:35;-1.40;99.90
36924;DHT22;22841;50.252;18.688;2023-03-12T05:03:02;-1.40;99.90
36924;DHT22;22841;50.252;18.688;2023-03-12T05:05:28;-1.40;99.90
36924;DHT22;22841;50.252;18.688;2023-03-12T05:07:54;-1.40;99.90
36924;DHT22;22841;50.252;18.688;2023-03-12T05:10:21;-1.30;99.90
36924;DHT22;22841;50.252;18.688;2023-03-12T05:12:47;-1.40;99.90
36924;DHT22;22841;50.252;18.688;2023-03-12T05:15:13;-1.30;99.90
36924;DHT22;22841;50.252;18.688;2023-03-12T05:17:39;-1.40;99.90
36924;DHT22;22841;50.252;18.688;2023-03-12T05:20:05;-1.40;99.90
36924;DHT22;22841;50.252;18.688;2023-03-12T05:22:31;-1.40;99.90
36924;DHT22;22841;50.252;18.688;2023-03-12T05:24:57;-1.30;99.90
36924;DHT22;22841;50.252;18.688;2023-03-12T05:27:23;-1.30;99.90
36924;DHT22;22841;50.252;18.688;2023-03-12T05:29:51;-1.40;99.90
36924;DHT22;22841;50.252;18.688;2023-03-12T05:32:17;-1.30;99.90
36924;DHT22;22841;50.252;18.688;2023-03-12T05:34:43;-1.30;99.90
36924;DHT22;22841;50.252;18.688;2023-03-12T05:37:09;-1.20;99.90
36924;DHT22;22841;50.252;18.688;2023-03-12T05:39:35;-1.30;99.90
36924;DHT22;22841;50.252;18.688;2023-03-12T05:42:03;-1.30;99.90
36924;DHT22;22841;50.252;18.688;2023-03-12T05:44:29;-1.20;99.90
36924;DHT22;22841;50.252;18.688;2023-03-12T05:46:56;-1.20;99.90
36924;DHT22;22841;50.252;18.688;2023-03-12T05:49:22;-1.20;99.90
36924;DHT22;22841;50.252;18.688;2023-03-12T05:51:49;-1.20;99.90
36924;DHT22;22841;50.252;18.688;2023-03-12T05:54:16;-1.20;99.90
36924;DHT22;22841;50.252;18.688;2023-03-12T05:56:42;-1.20;99.90
36924;DHT22;22841;50.252;18.688;2023-03-12T05:59:09;-1.20;99.90
36924;DHT22;22841;50.252;18.688;2023-03-12T06:01:38;-1.20;99.90
36924;DHT22;22841;50.252;18.688;2023-03-12T06:04:04;-1.20;99.90
36924;DHT22;22841;50.252;18.688;2023-03-12T06:06:32;-1.20;99.90
36924;DHT22;22841;50.252;18.688;2023-03-12T06:08:58;-1.20;99.90
36924;DHT22;22841;50.252;18.688;2023-03-12T06:11:24;-1.20;99.90
36924;DHT22;22841;50.252;18.688;2023-03-12T06:13:51;-1.10;99.90
36924;DHT22;22841;50.252;18.688;2023-03-12T06:16:19;-1.10;99.90
36924;DHT22;22841;50.252;18.688;2023-03-12T06:18:46;-1.10;99.90
36924;DHT22;22841;50.252;18.688;2023-03-12T06:21:18;-1.10;99.90
36924;DHT22;22841;50.252;18.688;2023-03-12T06:23:45;-1.00;99.90
36924;DHT22;22841;50.252;18.688;2023-03-12T06:26:11;-1.00;99.90
36924;DHT22;22841;50.252;18.688;2023-03-12T06:28:38;-1.00;99.90
36924;DHT22;22841;50.252;18.688;2023-03-12T06:31:05;-0.90;99.90
36924;DHT22;22841;50.252;18.688;2023-03-12T06:33:31;-0.90;99.90
36924;DHT22;22841;50.252;18.688;2023-03-12T06:35:59;-0.80;99.90
36924;DHT22;22841;50.252;18.688;2023-03-12T06:38:25;-0.70;99.90
36924;DHT22;22841;50.252;18.688;2023-03-12T06:41:04;-0.60;99.90
36924;DHT22;22841;50.252;18.688;2023-03-12T06:43:31;-0.60;99.90
36924;DHT22;22841;50.252;18.688;2023-03-12T06:45:59;-0.60;99.90
36924;DHT22;22841;50.252;18.688;2023-03-12T06:48:26;-0.50;99.90
36924;DHT22;22841;50.252;18.688;2023-03-12T06:50:53;-0.50;99.90
36924;DHT22;22841;50.252;18.688;2023-03-12T06:53:20;-0.50;99.90
36924;DHT22;22841;50.252;18.688;2023-03-12T06:55:49;-0.50;99.90
36924;DHT22;22841;50.252;18.688;2023-03-12T06:58:15;-0.40;99.90
36924;DHT22;22841;50.252;18.688;2023-03-12T07:00:41;-0.40;99.90
36924;DHT22;22841;50.252;18.688;2023-03-12T07:03:07;-0.50;99.90
36924;DHT22;22841;50.252;18.688;2023-03-12T07:05:34;-0.40;99.90
36924;DHT22;22841;50.252;18.688;2023-03-12T07:08:00;-0.50;99.90
36924;DHT22;22841;50.252;18.688;2023-03-12T07:10:26;-0.50;99.90
36924;DHT22;22841;50.252;18.688;2023-03-12T07:12:56;-0.50;99.90
36924;DHT22;22841;50.252;18.688;2023-03-12T07:15:22;-0.40;99.90
36924;DHT22;22841;50.252;18.688;2023-03-12T07:17:49;-0.40;99.90
36924;DHT22;22841;50.252;18.688;2023-03-12T07:20:15;-0.30;99.90
36924;DHT22;22841;50.252;18.688;2023-03-12T07:22:41;-0.30;99.90
36924;DHT22;22841;50.252;18.688;2023-03-12T07:25:08;-0.30;99.90
36924;DHT22;22841;50.252;18.688;2023-03-12T07:27:34;-0.20;99.90
36924;DHT22;22841;50.252;18.688;2023-03-12T07:30:01;-0.20;99.90
36924;DHT22;22841;50.252;18.688;2023-03-12T07:32:27;-0.10;99.90
36924;DHT22;22841;50.252;18.688;2023-03-12T07:34:53;-0.10;99.90
36924;DHT22;22841;50.252;18.688;2023-03-12T07:37:19;0.00;99.90
36924;DHT22;22841;50.252;18.688;2023-03-12T07:39:45;0.00;99.90
36924;DHT22;22841;50.252;18.688;2023-03-12T07:42:15;0.00;99.90
36924;DHT22;22841;50.252;18.688;2023-03-12T07:44:42;0.10;99.90
36924;DHT22;22841;50.252;18.688;2023-03-12T07:47:08;0.20;99.90
36924;DHT22;22841;50.252;18.688;2023-03-12T07:49:34;0.20;99.90
36924;DHT22;22841;50.252;18.688;2023-03-12T07:52:00;0.30;99.90
36924;DHT22;22841;50.252;18.688;2023-03-12T07:54:26;0.40;99.90
36924;DHT22;22841;50.252;18.688;2023-03-12T07:56:56;0.50;99.90
36924;DHT22;22841;50.252;18.688;2023-03-12T07:59:22;0.50;99.90
36924;DHT22;22841;50.252;18.688;2023-03-12T08:01:48;0.60;99.90
36924;DHT22;22841;50.252;18.688;2023-03-12T08:04:14;0.60;99.90
36924;DHT22;22841;50.252;18.688;2023-03-12T08:06:41;0.70;99.90
36924;DHT22;22841;50.252;18.688;2023-03-12T08:09:10;0.80;99.90
36924;DHT22;22841;50.252;18.688;2023-03-12T08:11:36;0.90;99.90
36924;DHT22;22841;50.252;18.688;2023-03-12T08:14:03;0.90;99.90
36924;DHT22;22841;50.252;18.688;2023-03-12T08:16:30;1.00;99.90
36924;DHT22;22841;50.252;18.688;2023-03-12T08:18:56;1.00;99.90
36924;DHT22;22841;50.252;18.688;2023-03-12T08:21:22;1.10;99.90
36924;DHT22;22841;50.252;18.688;2023-03-12T08:23:48;1.10;99.90
36924;DHT22;22841;50.252;18.688;2023-03-12T08:26:14;1.20;99.90
36924;DHT22;22841;50.252;18.688;2023-03-12T08:28:40;1.30;99.90
36924;DHT22;22841;50.252;18.688;2023-03-12T08:31:07;1.50;99.90
36924;DHT22;22841;50.252;18.688;2023-03-12T08:33:35;1.60;99.90
36924;DHT22;22841;50.252;18.688;2023-03-12T08:36:01;1.80;99.90
36924;DHT22;22841;50.252;18.688;2023-03-12T08:38:27;1.90;99.90
36924;DHT22;22841;50.252;18.688;2023-03-12T08:40:55;2.10;99.90
36924;DHT22;22841;50.252;18.688;2023-03-12T08:43:21;2.20;99.90
36924;DHT22;22841;50.252;18.688;2023-03-12T08:45:56;2.30;99.90
36924;DHT22;22841;50.252;18.688;2023-03-12T08:48:22;2.40;99.90
36924;DHT22;22841;50.252;18.688;2023-03-12T08:50:48;2.40;99.90
36924;DHT22;22841;50.252;18.688;2023-03-12T08:53:15;2.50;99.90
36924;DHT22;22841;50.252;18.688;2023-03-12T08:55:42;2.50;99.90
36924;DHT22;22841;50.252;18.688;2023-03-12T08:58:08;2.60;99.90
36924;DHT22;22841;50.252;18.688;2023-03-12T09:00:34;2.70;99.90
36924;DHT22;22841;50.252;18.688;2023-03-12T09:03:00;2.70;99.90
36924;DHT22;22841;50.252;18.688;2023-03-12T09:05:26;2.80;99.90
36924;DHT22;22841;50.252;18.688;2023-03-12T09:07:57;2.80;99.90
36924;DHT22;22841;50.252;18.688;2023-03-12T09:10:24;2.90;99.90
36924;DHT22;22841;50.252;18.688;2023-03-12T09:12:51;2.90;99.90
36924;DHT22;22841;50.252;18.688;2023-03-12T09:15:18;2.90;99.90
36924;DHT22;22841;50.252;18.688;2023-03-12T09:17:44;3.00;99.90
36924;DHT22;22841;50.252;18.688;2023-03-12T09:20:10;3.00;99.90
36924;DHT22;22841;50.252;18.688;2023-03-12T09:22:39;3.10;99.90
36924;DHT22;22841;50.252;18.688;2023-03-12T09:25:07;3.10;99.90
36924;DHT22;22841;50.252;18.688;2023-03-12T09:27:49;3.20;99.90
36924;DHT22;22841;50.252;18.688;2023-03-12T09:30:18;3.30;99.90
36924;DHT22;22841;50.252;18.688;2023-03-12T09:32:44;3.30;99.90
36924;DHT22;22841;50.252;18.688;2023-03-12T09:35:12;3.40;99.90
36924;DHT22;22841;50.252;18.688;2023-03-12T09:37:38;3.30;99.90
36924;DHT22;22841;50.252;18.688;2023-03-12T09:40:06;3.40;99.90
36924;DHT22;22841;50.252;18.688;2023-03-12T09:43:04;3.50;99.90
36924;DHT22;22841;50.252;18.688;2023-03-12T09:45:37;3.60;99.90
36924;DHT22;22841;50.252;18.688;2023-03-12T09:48:05;3.60;99.90
36924;DHT22;22841;50.252;18.688;2023-03-12T09:50:36;3.70;99.90
36924;DHT22;22841;50.252;18.688;2023-03-12T09:53:28;3.70;99.90
36924;DHT22;22841;50.252;18.688;2023-03-12T09:55:58;3.80;99.90
36924;DHT22;22841;50.252;18.688;2023-03-12T09:58:30;3.90;99.90
36924;DHT22;22841;50.252;18.688;2023-03-12T10:06:20;3.80;99.90
36924;DHT22;22841;50.252;18.688;2023-03-12T10:09:16;3.70;99.90
36924;DHT22;22841;50.252;18.688;2023-03-12T10:11:53;3.60;99.90
36924;DHT22;22841;50.252;18.688;2023-03-12T10:20:45;3.60;99.90
36924;DHT22;22841;50.252;18.688;2023-03-12T10:23:24;3.70;99.90
36924;DHT22;22841;50.252;18.688;2023-03-12T10:33:56;3.70;99.90
36924;DHT22;22841;50.252;18.688;2023-03-12T10:36:39;3.80;99.90
36924;DHT22;22841;50.252;18.688;2023-03-12T10:39:14;3.90;99.90
36924;DHT22;22841;50.252;18.688;2023-03-12T10:41:42;3.80;99.90
36924;DHT22;22841;50.252;18.688;2023-03-12T10:44:17;3.70;99.90
36924;DHT22;22841;50.252;18.688;2023-03-12T10:46:50;3.70;99.90
36924;DHT22;22841;50.252;18.688;2023-03-12T10:51:54;3.80;99.90
36924;DHT22;22841;50.252;18.688;2023-03-12T10:54:38;3.80;99.90
36924;DHT22;22841;50.252;18.688;2023-03-12T10:57:06;3.80;99.90
36924;DHT22;22841;50.252;18.688;2023-03-12T10:59:35;3.80;99.90
36924;DHT22;22841;50.252;18.688;2023-03-12T11:02:11;3.80;99.90
36924;DHT22;22841;50.252;18.688;2023-03-12T11:04:52;3.70;99.90
36924;DHT22;22841;50.252;18.688;2023-03-12T11:07:32;3.90;99.90
36924;DHT22;22841;50.252;18.688;2023-03-12T11:10:52;3.90;99.90
36924;DHT22;22841;50.252;18.688;2023-03-12T11:13:29;4.00;99.90
36924;DHT22;22841;50.252;18.688;2023-03-12T11:16:01;4.30;99.90
36924;DHT22;22841;50.252;18.688;2023-03-12T11:18:35;4.40;99.90
36924;DHT22;22841;50.252;18.688;2023-03-12T11:23:36;4.50;99.90
36924;DHT22;22841;50.252;18.688;2023-03-12T11:26:17;4.60;99.90
36924;DHT22;22841;50.252;18.688;2023-03-12T11:28:50;4.60;99.90
36924;DHT22;22841;50.252;18.688;2023-03-12T11:31:34;4.60;99.90
36924;DHT22;22841;50.252;18.688;2023-03-12T11:34:06;4.40;99.90
36924;DHT22;22841;50.252;18.688;2023-03-12T11:56:23;4.80;99.90
36924;DHT22;22841;50.252;18.688;2023-03-12T11:59:09;4.60;99.90
36924;DHT22;22841;50.252;18.688;2023-03-12T12:07:47;4.50;99.90
36924;DHT22;22841;50.252;18.688;2023-03-12T12:10:26;4.50;99.90
36924;DHT22;22841;50.252;18.688;2023-03-12T12:16:16;4.70;99.90
36924;DHT22;22841;50.252;18.688;2023-03-12T12:22:10;4.90;99.90
36924;DHT22;22841;50.252;18.688;2023-03-12T12:36:16;5.30;99.90
36924;DHT22;22841;50.252;18.688;2023-03-12T12:38:55;5.40;99.90
36924;DHT22;22841;50.252;18.688;2023-03-12T12:41:30;5.30;99.90
36924;DHT22;22841;50.252;18.688;2023-03-12T12:44:19;5.30;99.90
36924;DHT22;22841;50.252;18.688;2023-03-12T12:46:50;5.40;99.90
36924;DHT22;22841;50.252;18.688;2023-03-12T12:49:29;5.40;99.90
36924;DHT22;22841;50.252;18.688;2023-03-12T12:51:59;5.40;99.90
36924;DHT22;22841;50.252;18.688;2023-03-12T12:54:33;5.40;99.90
36924;DHT22;22841;50.252;18.688;2023-03-12T12:57:12;5.50;99.90
36924;DHT22;22841;50.252;18.688;2023-03-12T13:02:20;5.70;99.90
36924;DHT22;22841;50.252;18.688;2023-03-12T13:04:47;5.70;99.90
36924;DHT22;22841;50.252;18.688;2023-03-12T13:09:55;5.70;99.90
36924;DHT22;22841;50.252;18.688;2023-03-12T13:14:51;5.60;99.90
36924;DHT22;22841;50.252;18.688;2023-03-12T13:20:18;5.70;99.90
36924;DHT22;22841;50.252;18.688;2023-03-12T13:25:54;5.80;99.90
36924;DHT22;22841;50.252;18.688;2023-03-12T13:30:56;5.80;99.90
36924;DHT22;22841;50.252;18.688;2023-03-12T13:33:39;5.90;99.90
36924;DHT22;22841;50.252;18.688;2023-03-12T13:41:52;6.10;99.90
36924;DHT22;22841;50.252;18.688;2023-03-12T13:49:44;6.20;99.90
36924;DHT22;22841;50.252;18.688;2023-03-12T13:52:32;6.00;99.90
36924;DHT22;22841;50.252;18.688;2023-03-12T13:55:24;6.00;99.90
36924;DHT22;22841;50.252;18.688;2023-03-12T13:57:55;5.90;99.90
36924;DHT22;22841;50.252;18.688;2023-03-12T14:00:54;5.90;99.90
36924;DHT22;22841;50.252;18.688;2023-03-12T14:03:29;5.90;99.90
36924;DHT22;22841;50.252;18.688;2023-03-12T14:06:11;6.10;99.90
36924;DHT22;22841;50.252;18.688;2023-03-12T14:09:22;6.00;99.90
36924;DHT22;22841;50.252;18.688;2023-03-12T14:17:32;6.30;99.90
36924;DHT22;22841;50.252;18.688;2023-03-12T14:20:12;6.30;99.90
36924;DHT22;22841;50.252;18.688;2023-03-12T14:22:42;6.30;99.90
36924;DHT22;22841;50.252;18.688;2023-03-12T14:25:36;6.20;99.90
36924;DHT22;22841;50.252;18.688;2023-03-12T14:28:10;5.90;99.90
36924;DHT22;22841;50.252;18.688;2023-03-12T14:30:54;5.80;99.90
36924;DHT22;22841;50.252;18.688;2023-03-12T14:33:23;5.70;99.90
36924;DHT22;22841;50.252;18.688;2023-03-12T14:35:55;5.80;99.90
36924;DHT22;22841;50.252;18.688;2023-03-12T14:38:42;5.80;99.90
36924;DHT22;22841;50.252;18.688;2023-03-12T14:41:15;5.80;99.90
36924;DHT22;22841;50.252;18.688;2023-03-12T14:50:29;5.80;99.90
36924;DHT22;22841;50.252;18.688;2023-03-12T14:53:17;5.80;99.90
36924;DHT22;22841;50.252;18.688;2023-03-12T14:55:44;5.80;99.90
36924;DHT22;22841;50.252;18.688;2023-03-12T14:58:18;5.80;99.90
36924;DHT22;22841;50.252;18.688;2023-03-12T15:00:54;5.80;99.90
36924;DHT22;22841;50.252;18.688;2023-03-12T15:03:22;5.70;99.90
36924;DHT22;22841;50.252;18.688;2023-03-12T15:05:49;5.60;99.90
36924;DHT22;22841;50.252;18.688;2023-03-12T15:08:17;5.60;99.90
36924;DHT22;22841;50.252;18.688;2023-03-12T15:10:50;5.60;99.90
36924;DHT22;22841;50.252;18.688;2023-03-12T15:13:18;5.50;99.90
36924;DHT22;22841;50.252;18.688;2023-03-12T15:15:47;5.40;99.90
36924;DHT22;22841;50.252;18.688;2023-03-12T15:18:30;5.50;99.90
36924;DHT22;22841;50.252;18.688;2023-03-12T15:21:00;5.40;99.90
36924;DHT22;22841;50.252;18.688;2023-03-12T15:23:29;5.40;99.90
36924;DHT22;22841;50.252;18.688;2023-03-12T15:26:16;5.30;99.90
36924;DHT22;22841;50.252;18.688;2023-03-12T15:29:02;5.20;99.90
36924;DHT22;22841;50.252;18.688;2023-03-12T15:31:41;5.20;99.90
36924;DHT22;22841;50.252;18.688;2023-03-12T15:34:10;5.20;99.90
36924;DHT22;22841;50.252;18.688;2023-03-12T15:36:45;5.10;99.90
36924;DHT22;22841;50.252;18.688;2023-03-12T15:39:24;5.10;99.90
36924;DHT22;22841;50.252;18.688;2023-03-12T15:41:52;5.00;99.90
36924;DHT22;22841;50.252;18.688;2023-03-12T15:44:21;5.00;99.90
36924;DHT22;22841;50.252;18.688;2023-03-12T15:46:51;5.00;99.90
36924;DHT22;22841;50.252;18.688;2023-03-12T15:49:27;5.00;99.90
36924;DHT22;22841;50.252;18.688;2023-03-12T15:57:51;4.90;99.90
36924;DHT22;22841;50.252;18.688;2023-03-12T16:00:43;4.90;99.90
36924;DHT22;22841;50.252;18.688;2023-03-12T16:03:17;4.80;99.90
36924;DHT22;22841;50.252;18.688;2023-03-12T16:05:44;4.70;99.90
36924;DHT22;22841;50.252;18.688;2023-03-12T16:08:17;4.70;99.90
36924;DHT22;22841;50.252;18.688;2023-03-12T16:10:48;4.70;99.90
36924;DHT22;22841;50.252;18.688;2023-03-12T16:13:17;4.70;99.90
36924;DHT22;22841;50.252;18.688;2023-03-12T16:15:44;4.60;99.90
36924;DHT22;22841;50.252;18.688;2023-03-12T16:18:16;4.50;99.90
36924;DHT22;22841;50.252;18.688;2023-03-12T16:20:43;4.40;99.90
36924;DHT22;22841;50.252;18.688;2023-03-12T16:23:10;4.40;99.90
36924;DHT22;22841;50.252;18.688;2023-03-12T16:25:36;4.30;99.90
36924;DHT22;22841;50.252;18.688;2023-03-12T16:28:04;4.30;99.90
36924;DHT22;22841;50.252;18.688;2023-03-12T16:30:33;4.30;99.90
36924;DHT22;22841;50.252;18.688;2023-03-12T16:33:01;4.20;99.90
36924;DHT22;22841;50.252;18.688;2023-03-12T16:35:27;4.20;99.90
36924;DHT22;22841;50.252;18.688;2023-03-12T16:37:56;4.20;99.90
36924;DHT22;22841;50.252;18.688;2023-03-12T16:40:22;4.10;99.90
36924;DHT22;22841;50.252;18.688;2023-03-12T16:42:50;4.10;99.90
36924;DHT22;22841;50.252;18.688;2023-03-12T16:45:19;4.10;99.90
36924;DHT22;22841;50.252;18.688;2023-03-12T16:47:46;4.10;99.90
36924;DHT22;22841;50.252;18.688;2023-03-12T16:50:19;4.10;99.90
36924;DHT22;22841;50.252;18.688;2023-03-12T16:52:46;4.10;99.90
36924;DHT22;22841;50.252;18.688;2023-03-12T16:55:13;4.00;99.90
36924;DHT22;22841;50.252;18.688;2023-03-12T16:57:46;4.00;99.90
36924;DHT22;22841;50.252;18.688;2023-03-12T17:00:19;4.00;99.90
36924;DHT22;22841;50.252;18.688;2023-03-12T17:02:46;4.00;99.90
36924;DHT22;22841;50.252;18.688;2023-03-12T17:05:12;4.00;99.90
36924;DHT22;22841;50.252;18.688;2023-03-12T17:07:39;4.00;99.90
36924;DHT22;22841;50.252;18.688;2023-03-12T17:10:06;4.00;99.90
36924;DHT22;22841;50.252;18.688;2023-03-12T17:12:36;4.00;99.90
36924;DHT22;22841;50.252;18.688;2023-03-12T17:15:10;3.90;99.90
36924;DHT22;22841;50.252;18.688;2023-03-12T17:17:37;3.90;99.90
36924;DHT22;22841;50.252;18.688;2023-03-12T17:20:04;3.90;99.90
36924;DHT22;22841;50.252;18.688;2023-03-12T17:22:32;3.90;99.90
36924;DHT22;22841;50.252;18.688;2023-03-12T17:24:58;3.90;99.90
36924;DHT22;22841;50.252;18.688;2023-03-12T17:27:24;3.90;99.90
36924;DHT22;22841;50.252;18.688;2023-03-12T17:29:50;3.90;99.90
36924;DHT22;22841;50.252;18.688;2023-03-12T17:32:16;3.90;99.90
36924;DHT22;22841;50.252;18.688;2023-03-12T17:34:42;3.80;99.90
36924;DHT22;22841;50.252;18.688;2023-03-12T17:37:09;3.80;99.90
36924;DHT22;22841;50.252;18.688;2023-03-12T17:39:35;3.70;99.90